Badin Lake, North Carolina
Current Conditions -  °F | °C
As of 3:55 PM on Friday 31 Oct 2014 (Local Time) from KVUJ Reporting Station
Scattered Clouds Scattered Clouds  
Wind Chill: 60°   Ceiling: Unl
Heat Index: 60°   Visibility: 10mi
Dew Point: 43°   Wind: 0mph
Humidity: 53%   Direction: NA
Pressure: 29.86"   Gusts: NA
Location:  35.4384°N, 80.2063°W
Report Text: KVUJ 311955Z AUTO 00000KT 10SM SCT049 SCT065 16/06 A2986 RMK AO2 T01580062
Loading
Personal Weather Stations






























Interactive Weather Map
Tropical Storm Tracking
New forecast layout! Learn more

10-Day Weather Forecast

Advertisements
Track Severe Weather on mobile